createdAt,value
2019-06-26T00:00:36.434Z,95587.67
2019-06-26T00:03:05.565Z,95583.91
2019-06-26T00:05:34.524Z,95584.92
2019-06-26T00:08:04.089Z,95587.09
2019-06-26T00:10:33.103Z,95582.58
2019-06-26T00:13:02.130Z,95586.20
2019-06-26T00:15:31.031Z,95584.20
2019-06-26T00:18:00.049Z,95591.34
2019-06-26T00:20:28.997Z,95591.84
2019-06-26T00:22:57.951Z,95589.37
2019-06-26T00:25:26.947Z,95590.48
2019-06-26T00:27:55.943Z,95591.86
2019-06-26T00:30:24.861Z,95598.28
2019-06-26T00:32:53.820Z,95594.78
2019-06-26T00:35:22.795Z,95594.61
2019-06-26T00:37:51.861Z,95598.69
2019-06-26T00:40:20.815Z,95601.72
2019-06-26T00:42:49.732Z,95597.78
2019-06-26T00:45:18.710Z,95604.23
2019-06-26T00:47:47.746Z,95600.89
2019-06-26T00:50:17.020Z,95600.47
2019-06-26T00:52:45.992Z,95599.69
2019-06-26T00:55:14.958Z,95600.23
2019-06-26T00:57:43.894Z,95603.39
2019-06-26T01:00:13.016Z,95602.90
2019-06-26T01:02:42.048Z,95610.46
2019-06-26T01:05:12.637Z,95605.78
2019-06-26T01:07:41.708Z,95609.11
2019-06-26T01:10:12.489Z,95611.34
2019-06-26T01:12:41.516Z,95615.67
2019-06-26T01:15:10.782Z,95614.22
2019-06-26T01:17:39.796Z,95620.28
2019-06-26T01:20:09.191Z,95612.52
2019-06-26T01:22:38.181Z,95618.13
2019-06-26T01:25:07.155Z,95625.23
2019-06-26T01:27:36.112Z,95620.70
2019-06-26T01:30:05.634Z,95623.63
2019-06-26T01:32:34.596Z,95619.02
2019-06-26T01:35:04.096Z,95623.87
2019-06-26T01:37:33.334Z,95619.95
2019-06-26T01:40:02.284Z,95622.47
2019-06-26T01:42:31.576Z,95623.34
2019-06-26T01:45:00.575Z,95627.91
2019-06-26T01:47:29.527Z,95630.77
2019-06-26T01:49:58.684Z,95625.34
2019-06-26T01:52:27.650Z,95630.08
2019-06-26T01:54:56.608Z,95624.34
2019-06-26T01:57:25.535Z,95624.48
2019-06-26T01:59:54.519Z,95627.92
2019-06-26T02:02:23.478Z,95628.50
2019-06-26T02:04:52.359Z,95624.99
2019-06-26T02:07:21.314Z,95625.39
2019-06-26T02:09:50.273Z,95628.60
2019-06-26T02:12:19.242Z,95635.79
2019-06-26T02:14:48.221Z,95631.73
2019-06-26T02:17:17.213Z,95632.22
2019-06-26T02:19:46.183Z,95628.58
2019-06-26T02:22:15.177Z,95630.20
2019-06-26T02:24:44.051Z,95636.89
2019-06-26T02:27:12.937Z,95639.99
2019-06-26T02:29:41.834Z,95641.67
2019-06-26T02:32:10.781Z,95641.44
2019-06-26T02:34:39.710Z,95640.67
2019-06-26T02:37:08.668Z,95637.98
2019-06-26T02:39:37.667Z,95640.80
2019-06-26T02:42:06.594Z,95640.20
2019-06-26T02:44:52.364Z,95645.66
2019-06-26T02:47:19.705Z,95638.86
2019-06-26T02:49:37.089Z,95643.19
2019-06-26T02:52:06.245Z,95638.00
2019-06-26T02:54:35.140Z,95638.19
2019-06-26T02:57:04.132Z,95642.59
2019-06-26T02:59:33.240Z,95644.66
2019-06-26T03:02:02.459Z,95649.31
2019-06-26T03:04:31.399Z,95646.92
2019-06-26T03:07:00.503Z,95645.12
2019-06-26T03:09:29.469Z,95644.17
2019-06-26T03:11:58.456Z,95644.58
2019-06-26T03:14:34.637Z,95651.55
2019-06-26T03:17:04.729Z,95651.16
2019-06-26T03:19:33.664Z,95648.37
2019-06-26T03:22:02.680Z,95651.78
2019-06-26T03:24:31.646Z,95653.49
2019-06-26T03:27:00.676Z,95654.27
2019-06-26T03:29:29.746Z,95658.41
2019-06-26T03:31:58.769Z,95652.55
2019-06-26T03:34:28.306Z,95665.28
2019-06-26T03:36:57.705Z,95661.72
2019-06-26T03:39:45.069Z,95666.30
2019-06-26T03:42:14.151Z,95669.39
2019-06-26T03:44:43.098Z,95666.05
2019-06-26T03:47:12.103Z,95668.26
2019-06-26T03:49:40.997Z,95670.48
2019-06-26T03:52:10.273Z,95677.05
2019-06-26T03:54:40.219Z,95672.05
2019-06-26T03:57:09.405Z,95677.69
2019-06-26T03:59:38.372Z,95677.61
2019-06-26T04:02:07.337Z,95685.17
2019-06-26T04:04:36.333Z,95677.22
2019-06-26T04:07:05.629Z,95681.66
2019-06-26T04:09:34.727Z,95681.17
2019-06-26T04:12:03.793Z,95684.52
2019-06-26T04:14:32.753Z,95678.63
2019-06-26T04:17:01.729Z,95683.62
2019-06-26T04:19:30.600Z,95688.55
2019-06-26T04:21:59.857Z,95692.44
2019-06-26T04:24:28.792Z,95694.73
2019-06-26T04:27:07.515Z,95702.44
2019-06-26T04:29:36.553Z,95699.94
2019-06-26T04:32:05.794Z,95700.14
2019-06-26T04:34:43.596Z,95698.55
2019-06-26T04:37:12.660Z,95696.27
2019-06-26T04:39:41.630Z,95698.27
2019-06-26T04:42:13.805Z,95700.14
2019-06-26T04:44:42.770Z,95698.83
2019-06-26T04:47:11.780Z,95701.61
2019-06-26T04:49:40.638Z,95706.41
2019-06-26T04:52:09.674Z,95705.97
2019-06-26T04:54:38.771Z,95712.03
2019-06-26T04:57:07.764Z,95709.34
2019-06-26T04:59:36.654Z,95711.75
2019-06-26T05:02:05.646Z,95709.08
2019-06-26T05:04:34.660Z,95712.08
2019-06-26T05:07:03.649Z,95716.84
2019-06-26T05:09:32.643Z,95711.28
2019-06-26T05:12:01.702Z,95709.98
2019-06-26T05:14:30.642Z,95712.83
2019-06-26T05:16:59.572Z,95710.94
2019-06-26T05:19:28.521Z,95718.98
2019-06-26T05:21:58.205Z,95711.98
2019-06-26T05:24:27.187Z,95708.97
2019-06-26T05:30:18.469Z,95706.89
2019-06-26T05:32:47.853Z,95716.71
2019-06-26T05:35:19.233Z,95712.28
2019-06-26T05:37:48.477Z,95712.98
2019-06-26T05:40:18.158Z,95715.92
2019-06-26T05:42:55.084Z,95719.51
2019-06-26T05:45:24.352Z,95719.69
2019-06-26T05:47:53.581Z,95729.85
2019-06-26T05:50:25.326Z,95726.34
2019-06-26T05:52:54.517Z,95727.63
2019-06-26T05:55:23.481Z,95728.12
2019-06-26T05:57:52.589Z,95730.89
2019-06-26T06:00:21.511Z,95726.52
2019-06-26T06:02:53.720Z,95734.84
2019-06-26T06:05:21.323Z,95734.41
2019-06-26T06:08:02.499Z,95742.38
2019-06-26T06:10:31.425Z,95738.57
2019-06-26T06:13:00.506Z,95743.59
2019-06-26T06:15:29.935Z,95738.73
2019-06-26T06:17:59.878Z,95744.35
2019-06-26T06:20:36.842Z,95741.84
2019-06-26T06:23:09.154Z,95748.44
2019-06-26T06:25:46.135Z,95752.98
2019-06-26T06:28:17.519Z,95755.35
2019-06-26T06:30:46.689Z,95756.58
2019-06-26T06:33:16.175Z,95763.03
2019-06-26T06:35:46.063Z,95764.57
2019-06-26T06:38:15.351Z,95767.69
2019-06-26T06:40:47.858Z,95773.25
2019-06-26T06:43:19.246Z,95775.94
2019-06-26T06:45:49.568Z,95774.50
2019-06-26T06:48:18.737Z,95779.53
2019-06-26T06:50:48.379Z,95782.10
2019-06-26T06:53:18.977Z,95781.55
2019-06-26T06:55:51.806Z,95788.66
2019-06-26T06:58:21.418Z,95788.14
2019-06-26T07:00:52.949Z,95785.30
2019-06-26T07:03:21.975Z,95791.97
2019-06-26T07:05:52.487Z,95797.69
2019-06-26T07:08:28.331Z,95802.83
2019-06-26T07:10:58.746Z,95795.60
2019-06-26T07:13:30.514Z,95796.66
2019-06-26T07:16:00.805Z,95796.70
2019-06-26T07:18:33.183Z,95795.03
2019-06-26T07:21:03.106Z,95804.89
2019-06-26T07:23:34.210Z,95791.68
2019-06-26T07:26:07.004Z,95797.66
2019-06-26T07:28:36.057Z,95800.84
2019-06-26T07:34:28.067Z,95804.59
2019-06-26T07:36:57.131Z,95807.09
2019-06-26T07:39:28.203Z,95804.97
2019-06-26T07:41:57.744Z,95805.47
2019-06-26T07:44:26.922Z,95805.27
2019-06-26T07:46:55.941Z,95808.39
2019-06-26T07:49:25.165Z,95810.67
2019-06-26T07:51:55.203Z,95808.10
2019-06-26T07:54:24.513Z,95814.81
2019-06-26T07:56:53.547Z,95820.78
2019-06-26T07:59:36.105Z,95823.70
2019-06-26T08:02:05.183Z,95818.11
2019-06-26T08:04:34.170Z,95818.11
2019-06-26T08:07:04.835Z,95821.58
2019-06-26T08:09:33.860Z,95821.16
2019-06-26T08:12:02.797Z,95829.72
2019-06-26T08:14:33.991Z,95821.73
2019-06-26T08:17:03.279Z,95829.69
2019-06-26T08:19:32.344Z,95824.58
2019-06-26T08:22:24.944Z,95835.36
2019-06-26T08:24:56.346Z,95829.68
2019-06-26T08:27:25.204Z,95827.72
2019-06-26T08:29:54.129Z,95837.95
2019-06-26T08:32:25.951Z,95835.89
2019-06-26T08:34:56.544Z,95843.95
2019-06-26T08:37:27.478Z,95843.11
2019-06-26T08:39:56.403Z,95845.09
2019-06-26T08:42:26.273Z,95840.89
2019-06-26T08:45:12.292Z,95847.68
2019-06-26T08:47:41.260Z,95849.95
2019-06-26T08:50:15.022Z,95837.84
2019-06-26T08:52:44.183Z,95846.05
2019-06-26T08:55:13.533Z,95848.53
2019-06-26T08:57:42.618Z,95849.47
2019-06-26T09:00:12.518Z,95856.98
2019-06-26T09:02:41.619Z,95856.88
2019-06-26T09:05:25.183Z,95857.18
2019-06-26T09:07:54.288Z,95866.62
2019-06-26T09:10:23.347Z,95858.45
2019-06-26T09:12:52.245Z,95868.08
2019-06-26T09:15:21.232Z,95859.55
2019-06-26T09:17:50.188Z,95869.36
2019-06-26T09:20:26.104Z,95875.02
2019-06-26T09:22:55.093Z,95879.13
2019-06-26T09:25:47.347Z,95882.52
2019-06-26T09:28:22.144Z,95866.38
2019-06-26T09:30:51.084Z,95878.09
2019-06-26T09:33:20.446Z,95872.27
2019-06-26T09:39:31.837Z,95865.19
2019-06-26T09:42:00.898Z,95871.72
2019-06-26T09:44:30.283Z,95873.66
2019-06-26T09:47:09.543Z,95878.73
2019-06-26T09:50:20.285Z,95863.66
2019-06-26T09:53:49.876Z,95863.66
2019-06-26T09:56:22.929Z,95870.82
2019-06-26T09:58:52.561Z,95874.95
2019-06-26T10:01:22.115Z,95880.80
2019-06-26T10:03:53.939Z,95880.63
2019-06-26T10:06:29.703Z,95882.12
2019-06-26T10:09:13.089Z,95878.95
2019-06-26T10:11:43.424Z,95918.61
2019-06-26T10:14:13.601Z,95883.83
2019-06-26T10:16:44.608Z,95883.83
2019-06-26T10:19:13.761Z,95877.35
2019-06-26T10:21:42.788Z,95890.77
2019-06-26T10:24:12.997Z,95883.66
2019-06-26T10:30:14.862Z,95884.11
2019-06-26T10:33:22.106Z,95880.53
2019-06-26T10:33:25.013Z,95884.06
2019-06-26T10:35:54.140Z,95877.20
2019-06-26T10:38:26.707Z,95875.44
2019-06-26T10:41:00.563Z,95877.92
2019-06-26T10:44:14.041Z,95876.33
2019-06-26T10:50:50.068Z,95867.16
2019-06-26T10:56:43.328Z,95859.16
2019-06-26T10:59:27.460Z,95860.78
2019-06-26T11:02:04.781Z,95848.29
2019-06-26T11:04:36.392Z,95850.61
2019-06-26T11:07:05.772Z,95837.53
2019-06-26T11:09:34.915Z,95846.66
2019-06-26T11:13:36.845Z,95847.28
2019-06-26T11:16:51.789Z,95846.69
2019-06-26T11:20:50.445Z,95843.39
2019-06-26T11:23:47.869Z,95839.19
2019-06-26T11:26:30.819Z,95843.20
2019-06-26T11:29:25.565Z,95849.44
2019-06-26T11:32:21.751Z,95850.31
2019-06-26T11:35:27.599Z,95851.65
2019-06-26T11:46:14.191Z,95858.45
2019-06-26T11:48:49.613Z,95853.30
2019-06-26T11:59:10.064Z,95853.86
2019-06-26T12:06:15.311Z,95841.78
2019-06-26T12:08:51.452Z,95835.17
2019-06-26T12:16:35.798Z,95833.21
2019-06-26T12:22:47.777Z,95840.45
2019-06-26T12:26:22.926Z,95843.49
2019-06-26T12:41:25.696Z,95835.86
2019-06-26T12:51:48.239Z,95838.80
2019-06-26T12:56:25.735Z,95836.02
2019-06-26T12:59:18.570Z,95842.81
2019-06-26T13:07:20.275Z,95835.20
2019-06-26T13:16:41.671Z,95823.06
2019-06-26T13:31:14.719Z,95822.44
2019-06-26T13:34:39.825Z,95820.20
2019-06-26T13:42:05.480Z,95822.33
2019-06-26T13:44:45.027Z,95822.17
2019-06-26T13:48:20.302Z,95825.63
2019-06-26T13:58:36.913Z,95827.75
2019-06-26T14:02:05.073Z,95826.39
2019-06-26T14:07:52.771Z,95837.05
2019-06-26T14:15:55.131Z,95830.70
2019-06-26T14:18:30.661Z,95828.19
2019-06-26T14:22:23.297Z,95835.76
2019-06-26T14:25:59.066Z,95828.98
2019-06-26T14:28:07.935Z,95831.56
2019-06-26T14:30:40.693Z,95826.16
2019-06-26T14:34:13.354Z,95829.13
2019-06-26T14:37:31.947Z,95830.68
2019-06-26T14:41:06.133Z,95833.42
2019-06-26T14:44:14.106Z,95831.59
2019-06-26T14:47:23.005Z,95829.57
2019-06-26T14:50:27.335Z,95826.58
2019-06-26T14:52:56.482Z,95823.70
2019-06-26T14:55:28.727Z,95821.08
2019-06-26T14:58:24.076Z,95823.98
2019-06-26T15:01:06.320Z,95820.48
2019-06-26T15:03:41.966Z,95819.30
2019-06-26T15:06:16.557Z,95823.58
2019-06-26T15:08:44.304Z,95825.23
2019-06-26T15:11:15.695Z,95817.67
2019-06-26T15:13:45.060Z,95825.97
2019-06-26T15:16:19.803Z,95814.22
2019-06-26T15:18:51.334Z,95817.63
2019-06-26T15:21:26.379Z,95825.42
2019-06-26T15:23:58.647Z,95823.92
2019-06-26T15:26:33.742Z,95812.62
2019-06-26T15:29:03.219Z,95811.23
2019-06-26T15:31:32.429Z,95812.31
2019-06-26T15:34:01.510Z,95812.70
2019-06-26T15:36:30.712Z,95808.95
2019-06-26T15:38:59.839Z,95801.50
2019-06-26T15:41:28.926Z,95804.56
2019-06-26T15:44:02.173Z,95799.20
2019-06-26T15:46:31.445Z,95792.00
2019-06-26T15:49:00.355Z,95797.48
2019-06-26T15:51:29.557Z,95793.83
2019-06-26T15:54:00.047Z,95795.45
2019-06-26T15:56:29.183Z,95793.36
2019-06-26T15:58:58.264Z,95796.54
2019-06-26T16:01:27.444Z,95801.56
2019-06-26T16:03:56.405Z,95802.37
2019-06-26T16:06:25.659Z,95801.00
2019-06-26T16:08:54.804Z,95799.36
2019-06-26T16:11:23.958Z,95800.60
2019-06-26T16:13:52.985Z,95802.06
2019-06-26T16:16:22.855Z,95800.30
2019-06-26T16:18:57.434Z,95804.39
2019-06-26T16:22:31.711Z,95802.11
2019-06-26T16:28:49.823Z,95801.89
2019-06-26T16:32:07.220Z,95807.47
2019-06-26T16:35:21.832Z,95795.91
2019-06-26T16:38:46.901Z,95799.78
2019-06-26T16:42:21.421Z,95799.61
2019-06-26T16:44:29.566Z,95809.20
2019-06-26T16:46:59.383Z,95807.14
2019-06-26T16:49:28.373Z,95809.63
2019-06-26T16:51:57.539Z,95805.20
2019-06-26T16:54:26.619Z,95806.73
2019-06-26T16:56:55.847Z,95806.88
2019-06-26T16:59:24.719Z,95807.22
2019-06-26T17:01:53.815Z,95806.88
2019-06-26T17:04:22.860Z,95804.20
2019-06-26T17:06:51.858Z,95804.84
2019-06-26T17:09:21.810Z,95806.30
2019-06-26T17:11:50.958Z,95811.09
2019-06-26T17:14:22.977Z,95807.23
2019-06-26T17:16:52.169Z,95810.92
2019-06-26T17:19:21.373Z,95812.09
2019-06-26T17:21:53.284Z,95811.73
2019-06-26T17:24:23.153Z,95808.45
2019-06-26T17:26:52.156Z,95811.55
2019-06-26T17:29:21.128Z,95814.53
2019-06-26T17:31:50.173Z,95826.23
2019-06-26T17:34:20.186Z,95823.23
2019-06-26T17:36:49.163Z,95822.75
2019-06-26T17:39:18.131Z,95825.33
2019-06-26T17:41:47.099Z,95825.47
2019-06-26T17:44:16.080Z,95818.61
2019-06-26T17:46:45.223Z,95828.73
2019-06-26T17:49:14.274Z,95823.27
2019-06-26T17:51:43.377Z,95824.85
2019-06-26T17:54:12.404Z,95827.52
2019-06-26T17:56:41.411Z,95831.53
2019-06-26T17:59:10.369Z,95833.36
2019-06-26T21:39:06.683Z,95937.11
2019-06-26T21:41:35.799Z,95935.26
2019-06-26T21:44:04.982Z,95938.56
2019-06-26T21:46:33.891Z,95938.25
2019-06-26T21:49:02.789Z,95945.11
2019-06-26T21:51:31.874Z,95945.62
2019-06-26T21:54:00.845Z,95938.42
2019-06-26T21:56:29.721Z,95941.13
2019-06-26T21:58:58.669Z,95944.58
2019-06-26T22:01:27.625Z,95943.48
2019-06-26T22:04:01.981Z,95940.73
2019-06-26T22:06:32.222Z,95940.23
2019-06-26T22:09:02.182Z,95943.69
2019-06-26T22:11:35.980Z,95941.69
2019-06-26T22:14:06.090Z,95945.98
2019-06-26T22:16:36.013Z,95943.35
2019-06-26T22:19:05.399Z,95938.70
2019-06-26T22:21:34.341Z,95942.94
2019-06-26T22:24:03.249Z,95941.27
2019-06-26T22:26:32.193Z,95937.80
2019-06-26T22:29:01.154Z,95938.75
2019-06-26T22:31:30.100Z,95945.14
2019-06-26T22:33:58.958Z,95945.26
2019-06-26T22:36:27.889Z,95953.12
2019-06-26T22:38:56.939Z,95946.37
2019-06-26T22:41:25.891Z,95954.69
2019-06-26T22:43:54.869Z,95953.12
2019-06-26T22:46:23.749Z,95955.36
2019-06-26T22:48:52.638Z,95955.09
2019-06-26T22:51:22.423Z,95948.89
2019-06-26T22:53:51.422Z,95954.83
2019-06-26T22:56:20.406Z,95963.48
2019-06-26T22:58:49.342Z,95956.78
2019-06-26T23:01:18.286Z,95961.19
2019-06-26T23:03:47.188Z,95952.41
2019-06-26T23:06:16.939Z,95956.95
2019-06-26T23:08:45.896Z,95957.97
2019-06-26T23:11:14.769Z,95953.95
2019-06-26T23:13:43.793Z,95947.47
2019-06-26T23:16:12.761Z,95952.28
2019-06-26T23:18:41.866Z,95952.73
2019-06-26T23:21:10.870Z,95944.11
2019-06-26T23:23:39.798Z,95945.28
2019-06-26T23:26:22.929Z,95950.66
2019-06-26T23:28:39.378Z,95951.66
2019-06-26T23:31:08.281Z,95949.83
2019-06-26T23:33:37.243Z,95949.03
2019-06-26T23:36:06.518Z,95952.39
2019-06-26T23:38:35.462Z,95957.87
2019-06-26T23:41:04.508Z,95951.64
2019-06-26T23:43:33.402Z,95952.95
2019-06-26T23:46:02.382Z,95958.74
2019-06-26T23:48:31.459Z,95959.42
2019-06-26T23:51:00.330Z,95964.91
2019-06-26T23:53:29.518Z,95964.83
2019-06-26T23:55:58.454Z,95960.50
2019-06-26T23:58:27.956Z,95963.66
